Terminal Aerodrome Forecast
Issued by NWS Charleston, WV

Current Version | Previous Version | Graphics & Text | Print | Product List | Glossary On
Versions: 1 2 3 4 5 6 7 8 9 10 11 12 13 14 15 16 17 18 19 20 21 22
593
FTUS41 KRLX 221440 AAA
TAFCRW
TAF AMD
KCRW 221440Z 2215/2312 06004KT P6SM FEW100 BKN200
     FM222100 09005KT P6SM BKN250
     FM230600 12005KT P6SM SCT250=

USA.gov is the U.S. government's official web portal to all federal, state and local government web resources and services.